createdAt,value
2019-01-16T00:03:46.804Z,4.20
2019-01-16T00:13:29.602Z,4.10
2019-01-16T00:18:21.011Z,4.10
2019-01-16T00:23:12.374Z,4.10
2019-01-16T00:28:03.813Z,4.10
2019-01-16T00:32:55.229Z,4.00
2019-01-16T00:37:46.663Z,4.00
2019-01-16T00:42:38.059Z,4.00
2019-01-16T00:47:29.473Z,4.00
2019-01-16T00:52:20.871Z,3.90
2019-01-16T00:57:12.311Z,3.90
2019-01-16T01:02:03.717Z,3.90
2019-01-16T01:06:55.188Z,3.90
2019-01-16T01:11:46.426Z,3.90
2019-01-16T01:16:37.938Z,4.10
2019-01-16T01:21:29.345Z,4.00
2019-01-16T01:26:20.821Z,4.00
2019-01-16T01:31:12.159Z,3.90
2019-01-16T01:36:03.552Z,3.90
2019-01-16T01:40:54.914Z,4.00
2019-01-16T01:45:46.444Z,4.00
2019-01-16T01:50:37.683Z,3.90
2019-01-16T01:55:29.147Z,3.80
2019-01-16T02:00:20.457Z,3.90
2019-01-16T02:05:11.961Z,3.90
2019-01-16T02:10:03.279Z,3.90
2019-01-16T02:14:54.701Z,3.80
2019-01-16T02:19:46.090Z,3.80
2019-01-16T02:24:37.537Z,3.80
2019-01-16T02:29:28.945Z,3.80
2019-01-16T02:34:20.382Z,3.80
2019-01-16T02:39:11.734Z,3.70
2019-01-16T02:44:03.214Z,3.80
2019-01-16T02:48:56.997Z,3.70
2019-01-16T02:53:45.958Z,3.70
2019-01-16T02:58:37.325Z,3.70
2019-01-16T03:03:30.957Z,3.70
2019-01-16T03:08:22.478Z,3.70
2019-01-16T03:13:13.845Z,3.60
2019-01-16T03:18:05.177Z,3.60
2019-01-16T03:22:56.616Z,3.60
2019-01-16T03:27:47.926Z,3.40
2019-01-16T03:32:39.342Z,3.50
2019-01-16T03:37:30.716Z,3.30
2019-01-16T03:42:22.217Z,3.20
2019-01-16T03:47:13.506Z,3.10
2019-01-16T03:52:04.967Z,3.10
2019-01-16T03:56:56.364Z,3.10
2019-01-16T04:01:47.883Z,3.00
2019-01-16T04:06:39.131Z,3.00
2019-01-16T04:11:30.571Z,3.10
2019-01-16T04:16:22.012Z,3.00
2019-01-16T04:21:13.529Z,3.00
2019-01-16T04:26:04.845Z,2.90
2019-01-16T04:30:56.287Z,2.80
2019-01-16T04:35:47.622Z,2.80
2019-01-16T04:40:39.082Z,2.90
2019-01-16T04:45:30.468Z,2.80
2019-01-16T04:50:21.864Z,2.80
2019-01-16T04:55:13.231Z,2.80
2019-01-16T05:00:04.681Z,2.70
2019-01-16T05:04:56.037Z,2.70
2019-01-16T05:09:47.488Z,2.70
2019-01-16T05:14:38.845Z,2.70
2019-01-16T05:19:39.075Z,2.70
2019-01-16T05:24:21.688Z,2.70
2019-01-16T05:29:13.050Z,2.60
2019-01-16T05:34:04.573Z,2.40
2019-01-16T05:38:56.043Z,2.40
2019-01-16T05:43:47.371Z,2.30
2019-01-16T05:48:38.838Z,2.30
2019-01-16T05:53:30.228Z,2.30
2019-01-16T05:58:21.748Z,2.20
2019-01-16T06:03:13.059Z,2.20
2019-01-16T06:08:04.510Z,2.10
2019-01-16T06:12:55.889Z,2.00
2019-01-16T06:17:47.451Z,2.10
2019-01-16T06:22:38.786Z,2.10
2019-01-16T06:27:30.168Z,2.10
2019-01-16T06:32:21.520Z,1.90
2019-01-16T06:37:12.989Z,1.90
2019-01-16T06:42:04.358Z,1.70
2019-01-16T06:46:55.861Z,1.50
2019-01-16T06:51:47.123Z,1.20
2019-01-16T06:56:38.638Z,1.10
2019-01-16T07:01:29.962Z,1.00
2019-01-16T07:06:21.367Z,0.70
2019-01-16T07:11:12.748Z,0.90
2019-01-16T07:16:04.245Z,0.80
2019-01-16T07:20:55.494Z,0.80
2019-01-16T07:25:46.979Z,0.70
2019-01-16T07:30:38.326Z,0.50
2019-01-16T07:35:29.802Z,0.60
2019-01-16T07:40:21.104Z,0.60
2019-01-16T07:45:12.491Z,0.70
2019-01-16T07:50:03.852Z,0.50
2019-01-16T07:54:57.531Z,0.70
2019-01-16T07:59:48.954Z,0.70
2019-01-16T08:04:40.422Z,0.70
2019-01-16T08:09:31.752Z,0.80
2019-01-16T08:14:23.211Z,0.90
2019-01-16T08:19:14.597Z,1.00
2019-01-16T08:24:05.997Z,1.10
2019-01-16T08:28:57.392Z,1.40
2019-01-16T08:33:48.742Z,1.30
2019-01-16T08:38:40.121Z,1.70
2019-01-16T08:43:33.772Z,1.80
2019-01-16T08:48:25.262Z,1.90
2019-01-16T08:53:16.759Z,2.10
2019-01-16T08:58:08.075Z,2.40
2019-01-16T09:02:59.492Z,2.40
2019-01-16T09:07:50.841Z,2.40
2019-01-16T09:12:42.375Z,2.30
2019-01-16T09:17:33.660Z,2.50
2019-01-16T09:22:25.087Z,2.70
2019-01-16T09:27:16.496Z,2.70
2019-01-16T09:32:07.888Z,2.70
2019-01-16T09:36:59.338Z,2.80
2019-01-16T09:46:48.822Z,3.40
2019-01-16T09:51:40.262Z,3.50
2019-01-16T09:56:31.737Z,3.60
2019-01-16T10:01:25.317Z,3.70
2019-01-16T10:06:16.840Z,3.80
2019-01-16T10:11:08.212Z,4.00
2019-01-16T10:15:59.598Z,4.20
2019-01-16T10:20:56.479Z,4.20
2019-01-16T10:25:42.366Z,4.60
2019-01-16T10:30:33.722Z,4.60
2019-01-16T10:35:25.112Z,4.80
2019-01-16T10:40:16.505Z,4.80
2019-01-16T10:45:07.874Z,4.90
2019-01-16T10:50:01.525Z,5.20
2019-01-16T10:54:53.039Z,5.20
2019-01-16T10:59:44.362Z,5.20
2019-01-16T11:09:29.504Z,5.30
2019-01-16T11:14:20.860Z,5.50
2019-01-16T11:19:12.158Z,5.50
2019-01-16T11:24:03.676Z,5.50
2019-01-16T11:28:54.994Z,6.20
2019-01-16T11:33:46.376Z,6.60
2019-01-16T11:38:37.757Z,6.60
2019-01-16T11:43:29.177Z,6.90
2019-01-16T11:48:20.584Z,7.00
2019-01-16T11:53:12.974Z,7.00
2019-01-16T11:58:03.401Z,6.90
2019-01-16T12:02:54.811Z,6.70
2019-01-16T12:07:46.330Z,6.80
2019-01-16T12:12:37.655Z,6.80
2019-01-16T12:17:30.441Z,6.90
2019-01-16T12:22:22.651Z,6.90
2019-01-16T12:27:14.147Z,6.90
2019-01-16T12:32:07.727Z,7.30
2019-01-16T12:36:59.163Z,7.30
2019-01-16T12:41:50.584Z,7.40
2019-01-16T12:46:41.958Z,7.40
2019-01-16T12:51:34.434Z,7.40
2019-01-16T12:56:24.678Z,7.40
2019-01-16T13:01:18.308Z,7.30
2019-01-16T13:06:09.838Z,7.50
2019-01-16T13:11:03.391Z,7.60
2019-01-16T13:15:54.909Z,7.80
2019-01-16T13:20:46.213Z,7.80
2019-01-16T13:25:37.742Z,7.80
2019-01-16T13:30:31.271Z,7.90
2019-01-16T13:35:22.727Z,7.50
2019-01-16T13:40:14.074Z,7.50
2019-01-16T13:45:05.532Z,7.40
2019-01-16T13:49:56.891Z,7.30
2019-01-16T13:54:50.554Z,7.20
2019-01-16T13:59:41.958Z,7.20
2019-01-16T14:04:33.420Z,7.20
2019-01-16T14:09:24.751Z,7.00
2019-01-16T14:14:16.211Z,7.00
2019-01-16T14:19:07.539Z,6.80
2019-01-16T14:23:59.022Z,6.90
2019-01-16T14:28:50.351Z,6.60
2019-01-16T14:33:43.962Z,6.60
2019-01-16T14:38:35.391Z,6.50
2019-01-16T14:55:18.784Z,6.10
2019-01-16T14:58:01.060Z,6.00
2019-01-16T15:02:52.479Z,6.00
2019-01-16T15:07:43.813Z,5.70
2019-01-16T15:12:35.151Z,5.70
2019-01-16T15:17:26.578Z,5.60
2019-01-16T15:22:20.151Z,5.50
2019-01-16T15:27:11.723Z,5.30
2019-01-16T15:32:05.210Z,5.20
2019-01-16T15:36:56.756Z,5.20
2019-01-16T15:41:50.284Z,4.90
2019-01-16T15:46:42.102Z,5.00
2019-01-16T15:51:33.130Z,4.70
2019-01-16T15:56:24.620Z,4.60
2019-01-16T16:01:16.035Z,4.40
2019-01-16T16:06:07.395Z,4.30
2019-01-16T16:10:58.671Z,4.30
2019-01-16T16:15:52.335Z,4.30
2019-01-16T16:20:46.025Z,4.20
2019-01-16T16:25:37.458Z,4.10
2019-01-16T16:30:28.782Z,4.10
2019-01-16T16:35:22.496Z,4.10
2019-01-16T16:40:13.987Z,4.10
2019-01-16T16:45:05.369Z,4.10
2019-01-16T16:49:56.732Z,4.10
2019-01-16T16:54:48.170Z,4.10
2019-01-16T16:59:39.641Z,4.10
2019-01-16T17:04:30.971Z,4.00
2019-01-16T17:09:24.643Z,3.90
2019-01-16T17:14:18.267Z,3.80
2019-01-16T17:19:09.760Z,3.70
2019-01-16T17:24:01.153Z,3.70
2019-01-16T17:28:52.515Z,3.70
2019-01-16T17:33:43.969Z,3.60
2019-01-16T17:38:35.334Z,3.60
2019-01-16T17:43:26.824Z,3.70
2019-01-16T17:48:18.142Z,3.70
2019-01-16T17:53:09.557Z,3.70
2019-01-16T17:58:00.964Z,3.80
2019-01-16T18:02:52.658Z,3.80
2019-01-16T18:07:43.638Z,3.80
2019-01-16T18:12:35.069Z,3.90
2019-01-16T18:17:26.575Z,4.00
2019-01-16T18:22:17.944Z,3.90
2019-01-16T18:27:09.242Z,4.00
2019-01-16T18:32:00.640Z,4.00
2019-01-16T18:36:52.224Z,4.00
2019-01-16T18:41:45.718Z,3.90
2019-01-16T18:46:37.174Z,3.90
2019-01-16T18:51:28.695Z,3.80
2019-01-16T18:56:22.213Z,3.80
2019-01-16T19:01:13.624Z,3.80
2019-01-16T19:06:05.037Z,3.70
2019-01-16T19:10:56.486Z,3.70
2019-01-16T19:15:47.854Z,3.60
2019-01-16T19:20:39.259Z,3.60
2019-01-16T19:25:30.568Z,3.50
2019-01-16T19:30:22.257Z,3.40
2019-01-16T19:35:13.422Z,3.50
2019-01-16T19:40:04.775Z,3.40
2019-01-16T19:44:56.090Z,3.40
2019-01-16T19:49:47.535Z,3.30
2019-01-16T19:54:41.194Z,3.30
2019-01-16T19:59:34.838Z,3.10
2019-01-16T20:04:26.227Z,3.00
2019-01-16T20:09:19.916Z,3.10
2019-01-16T20:14:11.340Z,3.10
2019-01-16T20:19:02.684Z,3.00
2019-01-16T20:23:54.092Z,2.90
2019-01-16T20:28:45.511Z,2.90
2019-01-16T20:33:39.087Z,2.90
2019-01-16T20:38:30.524Z,3.00
2019-01-16T20:43:21.946Z,3.10
2019-01-16T20:48:13.351Z,3.20
2019-01-16T20:53:06.253Z,3.30
2019-01-16T20:57:56.162Z,3.40
2019-01-16T21:02:47.607Z,3.50
2019-01-16T21:07:38.943Z,3.60
2019-01-16T21:12:32.613Z,3.90
2019-01-16T21:17:24.072Z,4.00
2019-01-16T21:22:17.672Z,4.00
2019-01-16T21:27:09.118Z,4.00
2019-01-16T21:32:00.611Z,3.90
2019-01-16T21:36:54.078Z,4.10
2019-01-16T21:41:50.169Z,4.10
2019-01-16T21:46:41.606Z,3.90
2019-01-16T21:51:33.245Z,3.80
2019-01-16T21:56:24.401Z,3.80
2019-01-16T22:01:18.130Z,3.80
2019-01-16T22:06:11.893Z,3.80
2019-01-16T22:11:05.606Z,3.90
2019-01-16T22:15:56.999Z,3.90
2019-01-16T22:20:48.446Z,3.80
2019-01-16T22:25:39.904Z,3.80
2019-01-16T22:30:33.465Z,3.80
2019-01-16T22:35:24.925Z,3.80
2019-01-16T22:40:16.279Z,3.80
2019-01-16T22:45:07.807Z,3.80
2019-01-16T22:49:59.122Z,3.80
2019-01-16T22:54:50.605Z,3.70
2019-01-16T22:59:44.187Z,3.70
2019-01-16T23:04:37.859Z,3.60
2019-01-16T23:09:29.254Z,3.60
2019-01-16T23:14:20.688Z,3.60
2019-01-16T23:19:12.054Z,3.70
2019-01-16T23:24:05.071Z,3.80
2019-01-16T23:28:54.828Z,3.90
2019-01-16T23:33:46.378Z,4.00
2019-01-16T23:38:37.687Z,4.00
2019-01-16T23:43:31.283Z,4.00
2019-01-16T23:48:22.761Z,3.90
2019-01-16T23:53:14.184Z,3.90
2019-01-16T23:58:10.060Z,4.00
